sensor_id;sensor_type;location;lat;lon;timestamp;temperature;humidity
25300;DHT22;13241;51.208;4.432;2022-11-20T00:01:36;4.50;99.90
25300;DHT22;13241;51.208;4.432;2022-11-20T00:04:03;4.70;99.90
25300;DHT22;13241;51.208;4.432;2022-11-20T00:06:31;4.60;99.90
25300;DHT22;13241;51.208;4.432;2022-11-20T00:08:59;4.70;99.90
25300;DHT22;13241;51.208;4.432;2022-11-20T00:11:29;4.80;99.90
25300;DHT22;13241;51.208;4.432;2022-11-20T00:14:01;4.80;99.90
25300;DHT22;13241;51.208;4.432;2022-11-20T00:16:30;4.70;99.90
25300;DHT22;13241;51.208;4.432;2022-11-20T00:19:01;4.70;99.90
25300;DHT22;13241;51.208;4.432;2022-11-20T00:21:28;4.70;99.90
25300;DHT22;13241;51.208;4.432;2022-11-20T00:23:59;4.70;99.90
25300;DHT22;13241;51.208;4.432;2022-11-20T00:26:29;4.80;99.90
25300;DHT22;13241;51.208;4.432;2022-11-20T00:28:59;4.90;99.90
25300;DHT22;13241;51.208;4.432;2022-11-20T00:31:47;4.90;99.90
25300;DHT22;13241;51.208;4.432;2022-11-20T00:34:19;4.90;99.90
25300;DHT22;13241;51.208;4.432;2022-11-20T00:36:46;5.00;99.90
25300;DHT22;13241;51.208;4.432;2022-11-20T00:39:13;5.40;99.90
25300;DHT22;13241;51.208;4.432;2022-11-20T00:41:40;4.90;99.90
25300;DHT22;13241;51.208;4.432;2022-11-20T00:44:06;4.90;99.90
25300;DHT22;13241;51.208;4.432;2022-11-20T00:46:35;4.90;99.90
25300;DHT22;13241;51.208;4.432;2022-11-20T00:49:03;4.90;99.90
25300;DHT22;13241;51.208;4.432;2022-11-20T00:51:30;5.00;99.90
25300;DHT22;13241;51.208;4.432;2022-11-20T00:53:58;5.10;99.90
25300;DHT22;13241;51.208;4.432;2022-11-20T00:56:26;5.10;99.90
25300;DHT22;13241;51.208;4.432;2022-11-20T00:58:53;5.10;99.90
25300;DHT22;13241;51.208;4.432;2022-11-20T01:01:24;5.00;99.90
25300;DHT22;13241;51.208;4.432;2022-11-20T01:03:53;5.00;99.90
25300;DHT22;13241;51.208;4.432;2022-11-20T01:06:29;5.00;99.90
25300;DHT22;13241;51.208;4.432;2022-11-20T01:08:58;5.00;99.90
25300;DHT22;13241;51.208;4.432;2022-11-20T01:11:29;4.90;99.90
25300;DHT22;13241;51.208;4.432;2022-11-20T01:13:59;4.90;99.90
25300;DHT22;13241;51.208;4.432;2022-11-20T01:16:29;4.90;99.90
25300;DHT22;13241;51.208;4.432;2022-11-20T01:18:58;4.80;99.90
25300;DHT22;13241;51.208;4.432;2022-11-20T01:21:29;4.80;99.90
25300;DHT22;13241;51.208;4.432;2022-11-20T01:23:57;4.70;99.90
25300;DHT22;13241;51.208;4.432;2022-11-20T01:26:28;4.80;99.90
25300;DHT22;13241;51.208;4.432;2022-11-20T01:28:56;4.90;99.90
25300;DHT22;13241;51.208;4.432;2022-11-20T01:31:31;4.90;99.90
25300;DHT22;13241;51.208;4.432;2022-11-20T01:34:02;4.80;99.90
25300;DHT22;13241;51.208;4.432;2022-11-20T01:36:31;4.70;99.90
25300;DHT22;13241;51.208;4.432;2022-11-20T01:39:04;4.70;99.90
25300;DHT22;13241;51.208;4.432;2022-11-20T01:41:32;4.80;99.90
25300;DHT22;13241;51.208;4.432;2022-11-20T01:44:21;4.90;99.90
25300;DHT22;13241;51.208;4.432;2022-11-20T01:47:00;4.90;99.90
25300;DHT22;13241;51.208;4.432;2022-11-20T01:49:38;4.90;99.90
25300;DHT22;13241;51.208;4.432;2022-11-20T01:52:17;5.00;99.90
25300;DHT22;13241;51.208;4.432;2022-11-20T01:55:07;5.00;99.90
25300;DHT22;13241;51.208;4.432;2022-11-20T01:57:36;5.00;99.90
25300;DHT22;13241;51.208;4.432;2022-11-20T02:00:10;5.00;99.90
25300;DHT22;13241;51.208;4.432;2022-11-20T02:02:44;5.00;99.90
25300;DHT22;13241;51.208;4.432;2022-11-20T02:05:35;5.00;99.90
25300;DHT22;13241;51.208;4.432;2022-11-20T02:08:06;5.10;99.90
25300;DHT22;13241;51.208;4.432;2022-11-20T02:10:37;5.20;99.90
25300;DHT22;13241;51.208;4.432;2022-11-20T02:13:04;5.30;99.90
25300;DHT22;13241;51.208;4.432;2022-11-20T02:15:50;5.30;99.90
25300;DHT22;13241;51.208;4.432;2022-11-20T02:18:19;5.30;99.90
25300;DHT22;13241;51.208;4.432;2022-11-20T02:20:48;5.20;99.90
25300;DHT22;13241;51.208;4.432;2022-11-20T02:23:36;5.20;99.90
25300;DHT22;13241;51.208;4.432;2022-11-20T02:26:07;5.20;99.90
25300;DHT22;13241;51.208;4.432;2022-11-20T02:28:36;5.30;99.90
25300;DHT22;13241;51.208;4.432;2022-11-20T02:31:05;5.40;99.90
25300;DHT22;13241;51.208;4.432;2022-11-20T02:33:31;5.30;99.90
25300;DHT22;13241;51.208;4.432;2022-11-20T02:35:58;5.30;99.90
25300;DHT22;13241;51.208;4.432;2022-11-20T02:38:25;5.20;99.90
25300;DHT22;13241;51.208;4.432;2022-11-20T02:40:52;5.30;99.90
25300;DHT22;13241;51.208;4.432;2022-11-20T02:43:22;5.30;99.90
25300;DHT22;13241;51.208;4.432;2022-11-20T02:45:49;5.40;99.90
25300;DHT22;13241;51.208;4.432;2022-11-20T02:48:15;5.40;99.90
25300;DHT22;13241;51.208;4.432;2022-11-20T02:50:42;5.30;99.90
25300;DHT22;13241;51.208;4.432;2022-11-20T02:53:09;5.30;99.90
25300;DHT22;13241;51.208;4.432;2022-11-20T02:55:36;5.30;99.90
25300;DHT22;13241;51.208;4.432;2022-11-20T02:58:03;5.30;99.90
25300;DHT22;13241;51.208;4.432;2022-11-20T03:00:30;5.30;99.90
25300;DHT22;13241;51.208;4.432;2022-11-20T03:02:57;5.30;99.90
25300;DHT22;13241;51.208;4.432;2022-11-20T03:05:24;5.30;99.90
25300;DHT22;13241;51.208;4.432;2022-11-20T03:07:50;5.30;99.90
25300;DHT22;13241;51.208;4.432;2022-11-20T03:10:17;5.30;99.90
25300;DHT22;13241;51.208;4.432;2022-11-20T03:12:44;5.30;99.90
25300;DHT22;13241;51.208;4.432;2022-11-20T03:15:11;5.20;99.90
25300;DHT22;13241;51.208;4.432;2022-11-20T03:17:38;5.30;99.90
25300;DHT22;13241;51.208;4.432;2022-11-20T03:20:06;5.20;99.90
25300;DHT22;13241;51.208;4.432;2022-11-20T03:22:33;5.30;99.90
25300;DHT22;13241;51.208;4.432;2022-11-20T03:25:00;5.30;99.90
25300;DHT22;13241;51.208;4.432;2022-11-20T03:27:32;5.30;99.90
25300;DHT22;13241;51.208;4.432;2022-11-20T03:30:06;5.30;99.90
25300;DHT22;13241;51.208;4.432;2022-11-20T03:32:34;5.30;99.90
25300;DHT22;13241;51.208;4.432;2022-11-20T03:35:01;5.30;99.90
25300;DHT22;13241;51.208;4.432;2022-11-20T03:37:27;5.30;99.90
25300;DHT22;13241;51.208;4.432;2022-11-20T03:39:54;5.30;99.90
25300;DHT22;13241;51.208;4.432;2022-11-20T03:42:21;5.20;99.90
25300;DHT22;13241;51.208;4.432;2022-11-20T03:45:07;5.20;99.90
25300;DHT22;13241;51.208;4.432;2022-11-20T03:47:34;5.20;99.90
25300;DHT22;13241;51.208;4.432;2022-11-20T03:50:00;5.20;99.90
25300;DHT22;13241;51.208;4.432;2022-11-20T03:52:27;5.20;99.90
25300;DHT22;13241;51.208;4.432;2022-11-20T03:54:54;5.20;99.90
25300;DHT22;13241;51.208;4.432;2022-11-20T03:57:22;5.10;99.90
25300;DHT22;13241;51.208;4.432;2022-11-20T03:59:50;5.20;99.90
25300;DHT22;13241;51.208;4.432;2022-11-20T04:02:17;5.30;99.90
25300;DHT22;13241;51.208;4.432;2022-11-20T04:04:44;5.40;99.90
25300;DHT22;13241;51.208;4.432;2022-11-20T04:07:11;5.30;99.90
25300;DHT22;13241;51.208;4.432;2022-11-20T04:09:37;5.30;99.90
25300;DHT22;13241;51.208;4.432;2022-11-20T04:12:04;5.30;99.90
25300;DHT22;13241;51.208;4.432;2022-11-20T04:14:31;5.30;99.90
25300;DHT22;13241;51.208;4.432;2022-11-20T04:16:58;5.30;99.90
25300;DHT22;13241;51.208;4.432;2022-11-20T04:19:25;5.20;99.90
25300;DHT22;13241;51.208;4.432;2022-11-20T04:21:52;5.30;99.90
25300;DHT22;13241;51.208;4.432;2022-11-20T04:24:20;5.20;99.90
25300;DHT22;13241;51.208;4.432;2022-11-20T04:26:46;5.10;99.90
25300;DHT22;13241;51.208;4.432;2022-11-20T04:29:13;5.10;99.90
25300;DHT22;13241;51.208;4.432;2022-11-20T04:31:41;5.10;99.90
25300;DHT22;13241;51.208;4.432;2022-11-20T04:34:11;5.00;99.90
25300;DHT22;13241;51.208;4.432;2022-11-20T04:36:39;4.90;99.90
25300;DHT22;13241;51.208;4.432;2022-11-20T04:39:06;5.00;99.90
25300;DHT22;13241;51.208;4.432;2022-11-20T04:41:35;5.00;99.90
25300;DHT22;13241;51.208;4.432;2022-11-20T04:44:04;5.00;99.90
25300;DHT22;13241;51.208;4.432;2022-11-20T04:46:38;5.00;99.90
25300;DHT22;13241;51.208;4.432;2022-11-20T04:49:06;5.10;99.90
25300;DHT22;13241;51.208;4.432;2022-11-20T04:51:34;5.10;99.90
25300;DHT22;13241;51.208;4.432;2022-11-20T04:54:01;5.10;99.90
25300;DHT22;13241;51.208;4.432;2022-11-20T04:56:28;5.10;99.90
25300;DHT22;13241;51.208;4.432;2022-11-20T04:58:54;5.10;99.90
25300;DHT22;13241;51.208;4.432;2022-11-20T05:01:23;5.10;99.90
25300;DHT22;13241;51.208;4.432;2022-11-20T05:03:50;5.00;99.90
25300;DHT22;13241;51.208;4.432;2022-11-20T05:06:21;5.00;99.90
25300;DHT22;13241;51.208;4.432;2022-11-20T05:08:48;5.00;99.90
25300;DHT22;13241;51.208;4.432;2022-11-20T05:11:18;4.90;99.90
25300;DHT22;13241;51.208;4.432;2022-11-20T05:13:46;4.90;99.90
25300;DHT22;13241;51.208;4.432;2022-11-20T05:16:19;4.90;99.90
25300;DHT22;13241;51.208;4.432;2022-11-20T05:18:47;5.00;99.90
25300;DHT22;13241;51.208;4.432;2022-11-20T05:21:15;5.10;99.90
25300;DHT22;13241;51.208;4.432;2022-11-20T05:23:43;5.00;99.90
25300;DHT22;13241;51.208;4.432;2022-11-20T05:26:18;5.10;99.90
25300;DHT22;13241;51.208;4.432;2022-11-20T05:28:46;5.10;99.90
25300;DHT22;13241;51.208;4.432;2022-11-20T05:31:16;5.10;99.90
25300;DHT22;13241;51.208;4.432;2022-11-20T05:33:51;5.10;99.90
25300;DHT22;13241;51.208;4.432;2022-11-20T05:36:18;5.20;99.90
25300;DHT22;13241;51.208;4.432;2022-11-20T05:38:44;5.10;99.90
25300;DHT22;13241;51.208;4.432;2022-11-20T05:41:18;5.20;99.90
25300;DHT22;13241;51.208;4.432;2022-11-20T05:43:46;5.20;99.90
25300;DHT22;13241;51.208;4.432;2022-11-20T05:46:16;5.20;99.90
25300;DHT22;13241;51.208;4.432;2022-11-20T05:48:44;5.20;99.90
25300;DHT22;13241;51.208;4.432;2022-11-20T05:51:15;5.10;99.90
25300;DHT22;13241;51.208;4.432;2022-11-20T05:53:42;5.00;99.90
25300;DHT22;13241;51.208;4.432;2022-11-20T05:56:16;5.00;99.90
25300;DHT22;13241;51.208;4.432;2022-11-20T05:58:44;4.90;99.90
25300;DHT22;13241;51.208;4.432;2022-11-20T06:01:15;4.80;99.90
25300;DHT22;13241;51.208;4.432;2022-11-20T06:03:43;4.80;99.90
25300;DHT22;13241;51.208;4.432;2022-11-20T06:06:13;4.80;99.90
25300;DHT22;13241;51.208;4.432;2022-11-20T06:08:41;4.80;99.90
25300;DHT22;13241;51.208;4.432;2022-11-20T06:11:10;4.80;99.90
25300;DHT22;13241;51.208;4.432;2022-11-20T06:13:37;4.80;99.90
25300;DHT22;13241;51.208;4.432;2022-11-20T06:16:09;4.80;99.90
25300;DHT22;13241;51.208;4.432;2022-11-20T06:18:36;4.80;99.90
25300;DHT22;13241;51.208;4.432;2022-11-20T06:21:14;4.90;99.90
25300;DHT22;13241;51.208;4.432;2022-11-20T06:23:41;4.90;99.90
25300;DHT22;13241;51.208;4.432;2022-11-20T06:26:11;4.90;99.90
25300;DHT22;13241;51.208;4.432;2022-11-20T06:28:38;5.00;99.90
25300;DHT22;13241;51.208;4.432;2022-11-20T06:31:06;5.00;99.90
25300;DHT22;13241;51.208;4.432;2022-11-20T06:33:33;5.00;99.90
25300;DHT22;13241;51.208;4.432;2022-11-20T06:36:01;5.00;99.90
25300;DHT22;13241;51.208;4.432;2022-11-20T06:38:36;4.90;99.90
25300;DHT22;13241;51.208;4.432;2022-11-20T06:41:04;4.90;99.90
25300;DHT22;13241;51.208;4.432;2022-11-20T06:43:31;4.90;99.90
25300;DHT22;13241;51.208;4.432;2022-11-20T06:45:58;5.00;99.90
25300;DHT22;13241;51.208;4.432;2022-11-20T06:48:27;5.00;99.90
25300;DHT22;13241;51.208;4.432;2022-11-20T06:50:55;5.00;99.90
25300;DHT22;13241;51.208;4.432;2022-11-20T06:53:22;4.90;99.90
25300;DHT22;13241;51.208;4.432;2022-11-20T06:55:51;4.90;99.90
25300;DHT22;13241;51.208;4.432;2022-11-20T06:58:18;4.90;99.90
25300;DHT22;13241;51.208;4.432;2022-11-20T07:00:45;4.90;99.90
25300;DHT22;13241;51.208;4.432;2022-11-20T07:03:12;4.90;99.90
25300;DHT22;13241;51.208;4.432;2022-11-20T07:05:39;4.90;99.90
25300;DHT22;13241;51.208;4.432;2022-11-20T07:08:07;5.00;99.90
25300;DHT22;13241;51.208;4.432;2022-11-20T07:10:34;5.00;99.90
25300;DHT22;13241;51.208;4.432;2022-11-20T07:13:01;5.10;99.90
25300;DHT22;13241;51.208;4.432;2022-11-20T07:15:29;5.10;99.90
25300;DHT22;13241;51.208;4.432;2022-11-20T07:17:59;5.10;99.90
25300;DHT22;13241;51.208;4.432;2022-11-20T07:20:26;5.10;99.90
25300;DHT22;13241;51.208;4.432;2022-11-20T07:22:57;5.10;99.90
25300;DHT22;13241;51.208;4.432;2022-11-20T07:25:25;5.30;99.90
25300;DHT22;13241;51.208;4.432;2022-11-20T07:27:56;5.10;99.90
25300;DHT22;13241;51.208;4.432;2022-11-20T07:30:23;5.20;99.90
25300;DHT22;13241;51.208;4.432;2022-11-20T07:32:51;5.20;99.90
25300;DHT22;13241;51.208;4.432;2022-11-20T07:35:19;5.30;99.90
25300;DHT22;13241;51.208;4.432;2022-11-20T07:37:45;5.30;99.90
25300;DHT22;13241;51.208;4.432;2022-11-20T07:40:14;5.40;99.90
25300;DHT22;13241;51.208;4.432;2022-11-20T07:42:51;5.40;99.90
25300;DHT22;13241;51.208;4.432;2022-11-20T07:45:21;5.80;99.90
25300;DHT22;13241;51.208;4.432;2022-11-20T07:47:49;5.70;99.90
25300;DHT22;13241;51.208;4.432;2022-11-20T07:50:16;5.40;99.90
25300;DHT22;13241;51.208;4.432;2022-11-20T07:52:43;5.40;99.90
25300;DHT22;13241;51.208;4.432;2022-11-20T07:55:10;5.40;99.90
25300;DHT22;13241;51.208;4.432;2022-11-20T07:57:37;5.50;99.90
25300;DHT22;13241;51.208;4.432;2022-11-20T08:00:06;5.50;99.90
25300;DHT22;13241;51.208;4.432;2022-11-20T08:02:39;5.50;99.90
25300;DHT22;13241;51.208;4.432;2022-11-20T08:05:07;5.50;99.90
25300;DHT22;13241;51.208;4.432;2022-11-20T08:07:38;5.50;99.90
25300;DHT22;13241;51.208;4.432;2022-11-20T08:10:07;5.60;99.90
25300;DHT22;13241;51.208;4.432;2022-11-20T08:12:34;5.70;99.90
25300;DHT22;13241;51.208;4.432;2022-11-20T08:15:20;5.70;99.90
25300;DHT22;13241;51.208;4.432;2022-11-20T08:17:47;5.70;99.90
25300;DHT22;13241;51.208;4.432;2022-11-20T08:20:34;5.80;99.90
25300;DHT22;13241;51.208;4.432;2022-11-20T08:23:02;5.90;99.90
25300;DHT22;13241;51.208;4.432;2022-11-20T08:25:30;5.80;99.90
25300;DHT22;13241;51.208;4.432;2022-11-20T08:28:00;5.90;99.90
25300;DHT22;13241;51.208;4.432;2022-11-20T08:30:41;5.90;99.90
25300;DHT22;13241;51.208;4.432;2022-11-20T08:33:09;5.80;99.90
25300;DHT22;13241;51.208;4.432;2022-11-20T08:35:36;5.90;99.90
25300;DHT22;13241;51.208;4.432;2022-11-20T08:38:05;5.90;99.90
25300;DHT22;13241;51.208;4.432;2022-11-20T08:40:33;6.00;99.90
25300;DHT22;13241;51.208;4.432;2022-11-20T08:43:01;6.00;99.90
25300;DHT22;13241;51.208;4.432;2022-11-20T08:45:30;6.10;99.90
25300;DHT22;13241;51.208;4.432;2022-11-20T08:48:04;6.10;99.90
25300;DHT22;13241;51.208;4.432;2022-11-20T08:50:33;6.10;99.90
25300;DHT22;13241;51.208;4.432;2022-11-20T08:53:04;6.40;99.90
25300;DHT22;13241;51.208;4.432;2022-11-20T08:55:33;6.10;99.90
25300;DHT22;13241;51.208;4.432;2022-11-20T08:58:05;6.30;99.90
25300;DHT22;13241;51.208;4.432;2022-11-20T09:00:33;6.00;99.90
25300;DHT22;13241;51.208;4.432;2022-11-20T09:03:00;6.00;99.90
25300;DHT22;13241;51.208;4.432;2022-11-20T09:05:28;6.10;99.90
25300;DHT22;13241;51.208;4.432;2022-11-20T09:08:00;6.10;99.90
25300;DHT22;13241;51.208;4.432;2022-11-20T09:10:28;6.10;99.90
25300;DHT22;13241;51.208;4.432;2022-11-20T09:12:55;6.10;99.90
25300;DHT22;13241;51.208;4.432;2022-11-20T09:15:24;6.00;99.90
25300;DHT22;13241;51.208;4.432;2022-11-20T09:17:56;5.90;99.90
25300;DHT22;13241;51.208;4.432;2022-11-20T09:20:23;5.90;99.90
25300;DHT22;13241;51.208;4.432;2022-11-20T09:22:50;6.20;99.90
25300;DHT22;13241;51.208;4.432;2022-11-20T09:25:18;6.10;99.90
25300;DHT22;13241;51.208;4.432;2022-11-20T09:27:45;6.20;99.90
25300;DHT22;13241;51.208;4.432;2022-11-20T09:30:15;6.20;99.90
25300;DHT22;13241;51.208;4.432;2022-11-20T09:32:42;6.40;99.90
25300;DHT22;13241;51.208;4.432;2022-11-20T09:35:10;6.40;99.90
25300;DHT22;13241;51.208;4.432;2022-11-20T09:37:38;6.40;99.90
25300;DHT22;13241;51.208;4.432;2022-11-20T09:40:06;6.40;99.90
25300;DHT22;13241;51.208;4.432;2022-11-20T09:42:58;6.40;99.90
25300;DHT22;13241;51.208;4.432;2022-11-20T09:51:31;6.80;99.90
25300;DHT22;13241;51.208;4.432;2022-11-20T09:54:17;6.80;99.90
25300;DHT22;13241;51.208;4.432;2022-11-20T09:56:49;6.90;99.90
25300;DHT22;13241;51.208;4.432;2022-11-20T09:59:42;6.90;99.90
25300;DHT22;13241;51.208;4.432;2022-11-20T10:02:17;7.00;99.90
25300;DHT22;13241;51.208;4.432;2022-11-20T10:05:21;7.10;99.90
25300;DHT22;13241;51.208;4.432;2022-11-20T10:08:11;7.10;99.90
25300;DHT22;13241;51.208;4.432;2022-11-20T10:11:05;7.20;99.90
25300;DHT22;13241;51.208;4.432;2022-11-20T10:13:57;7.40;99.90
25300;DHT22;13241;51.208;4.432;2022-11-20T10:16:37;7.30;99.90
25300;DHT22;13241;51.208;4.432;2022-11-20T10:22:30;7.30;99.90
25300;DHT22;13241;51.208;4.432;2022-11-20T10:27:53;7.30;99.90
25300;DHT22;13241;51.208;4.432;2022-11-20T10:30:22;7.30;99.90
25300;DHT22;13241;51.208;4.432;2022-11-20T10:32:55;7.30;99.90
25300;DHT22;13241;51.208;4.432;2022-11-20T10:35:36;7.30;99.90
25300;DHT22;13241;51.208;4.432;2022-11-20T10:38:16;7.40;99.90
25300;DHT22;13241;51.208;4.432;2022-11-20T10:40:51;7.50;99.90
25300;DHT22;13241;51.208;4.432;2022-11-20T10:43:28;7.60;99.90
25300;DHT22;13241;51.208;4.432;2022-11-20T10:46:03;7.70;99.90
25300;DHT22;13241;51.208;4.432;2022-11-20T10:48:31;7.80;99.90
25300;DHT22;13241;51.208;4.432;2022-11-20T10:56:17;7.80;99.90
25300;DHT22;13241;51.208;4.432;2022-11-20T10:59:19;7.90;99.90
25300;DHT22;13241;51.208;4.432;2022-11-20T11:01:51;7.90;99.90
25300;DHT22;13241;51.208;4.432;2022-11-20T11:04:37;8.10;99.90
25300;DHT22;13241;51.208;4.432;2022-11-20T11:07:27;8.10;99.90
25300;DHT22;13241;51.208;4.432;2022-11-20T11:09:57;8.30;99.90
25300;DHT22;13241;51.208;4.432;2022-11-20T11:12:25;8.30;99.90
25300;DHT22;13241;51.208;4.432;2022-11-20T11:14:54;8.40;99.90
25300;DHT22;13241;51.208;4.432;2022-11-20T11:17:29;8.40;99.90
25300;DHT22;13241;51.208;4.432;2022-11-20T11:22:29;8.50;99.90
25300;DHT22;13241;51.208;4.432;2022-11-20T11:24:56;8.40;99.90
25300;DHT22;13241;51.208;4.432;2022-11-20T11:27:23;8.40;99.90
25300;DHT22;13241;51.208;4.432;2022-11-20T11:29:49;8.50;99.90
25300;DHT22;13241;51.208;4.432;2022-11-20T11:32:20;8.50;99.90
25300;DHT22;13241;51.208;4.432;2022-11-20T11:35:02;8.60;99.90
25300;DHT22;13241;51.208;4.432;2022-11-20T11:37:34;8.60;99.90
25300;DHT22;13241;51.208;4.432;2022-11-20T11:40:04;8.70;99.90
25300;DHT22;13241;51.208;4.432;2022-11-20T11:42:56;8.70;99.90
25300;DHT22;13241;51.208;4.432;2022-11-20T11:45:24;8.90;99.90
25300;DHT22;13241;51.208;4.432;2022-11-20T11:47:53;9.00;99.90
25300;DHT22;13241;51.208;4.432;2022-11-20T11:50:25;9.10;99.90
25300;DHT22;13241;51.208;4.432;2022-11-20T11:55:42;9.10;99.90
25300;DHT22;13241;51.208;4.432;2022-11-20T11:58:15;9.30;99.90
25300;DHT22;13241;51.208;4.432;2022-11-20T12:00:51;9.40;99.90
25300;DHT22;13241;51.208;4.432;2022-11-20T12:03:27;9.50;99.90
25300;DHT22;13241;51.208;4.432;2022-11-20T12:05:58;9.50;99.90
25300;DHT22;13241;51.208;4.432;2022-11-20T12:08:32;9.50;99.90
25300;DHT22;13241;51.208;4.432;2022-11-20T12:13:48;9.50;99.90
25300;DHT22;13241;51.208;4.432;2022-11-20T12:16:18;9.50;99.90
25300;DHT22;13241;51.208;4.432;2022-11-20T12:18:49;9.50;99.90
25300;DHT22;13241;51.208;4.432;2022-11-20T12:21:31;9.70;99.90
25300;DHT22;13241;51.208;4.432;2022-11-20T12:26:58;9.60;99.90
25300;DHT22;13241;51.208;4.432;2022-11-20T12:53:37;9.30;99.90
25300;DHT22;13241;51.208;4.432;2022-11-20T12:56:26;9.30;99.90
25300;DHT22;13241;51.208;4.432;2022-11-20T13:07:36;9.20;99.90
25300;DHT22;13241;51.208;4.432;2022-11-20T13:10:05;9.10;99.90
25300;DHT22;13241;51.208;4.432;2022-11-20T13:12:47;9.10;99.90
25300;DHT22;13241;51.208;4.432;2022-11-20T13:15:47;9.20;99.90
25300;DHT22;13241;51.208;4.432;2022-11-20T13:18:15;9.20;99.90
25300;DHT22;13241;51.208;4.432;2022-11-20T13:20:44;9.10;99.90
25300;DHT22;13241;51.208;4.432;2022-11-20T13:23:22;9.20;99.90
25300;DHT22;13241;51.208;4.432;2022-11-20T13:25:49;9.30;99.90
25300;DHT22;13241;51.208;4.432;2022-11-20T13:30:52;9.40;99.90
25300;DHT22;13241;51.208;4.432;2022-11-20T13:33:29;9.40;99.90
25300;DHT22;13241;51.208;4.432;2022-11-20T13:38:57;9.30;99.90
25300;DHT22;13241;51.208;4.432;2022-11-20T13:41:33;9.30;99.90
25300;DHT22;13241;51.208;4.432;2022-11-20T13:46:41;9.30;99.90
25300;DHT22;13241;51.208;4.432;2022-11-20T13:49:32;9.30;99.90
25300;DHT22;13241;51.208;4.432;2022-11-20T13:52:22;9.30;99.90
25300;DHT22;13241;51.208;4.432;2022-11-20T13:55:14;9.30;99.90
25300;DHT22;13241;51.208;4.432;2022-11-20T14:00:27;9.10;99.90
25300;DHT22;13241;51.208;4.432;2022-11-20T14:05:56;9.10;99.90
25300;DHT22;13241;51.208;4.432;2022-11-20T14:08:47;9.10;99.90
25300;DHT22;13241;51.208;4.432;2022-11-20T14:14:00;9.00;99.90
25300;DHT22;13241;51.208;4.432;2022-11-20T14:16:29;9.00;99.90
25300;DHT22;13241;51.208;4.432;2022-11-20T14:18:58;9.00;99.90
25300;DHT22;13241;51.208;4.432;2022-11-20T14:21:43;9.00;99.90
25300;DHT22;13241;51.208;4.432;2022-11-20T14:24:19;9.00;99.90
25300;DHT22;13241;51.208;4.432;2022-11-20T14:27:16;9.10;99.90
25300;DHT22;13241;51.208;4.432;2022-11-20T14:29:49;9.00;99.90
25300;DHT22;13241;51.208;4.432;2022-11-20T14:32:19;9.00;99.90
25300;DHT22;13241;51.208;4.432;2022-11-20T14:34:49;9.00;99.90
25300;DHT22;13241;51.208;4.432;2022-11-20T14:37:23;9.00;99.90
25300;DHT22;13241;51.208;4.432;2022-11-20T14:39:55;9.20;99.90
25300;DHT22;13241;51.208;4.432;2022-11-20T14:42:28;9.00;99.90
25300;DHT22;13241;51.208;4.432;2022-11-20T14:44:57;9.00;99.90
25300;DHT22;13241;51.208;4.432;2022-11-20T14:47:29;9.00;99.90
25300;DHT22;13241;51.208;4.432;2022-11-20T14:49:58;8.90;99.90
25300;DHT22;13241;51.208;4.432;2022-11-20T14:52:31;8.90;99.90
25300;DHT22;13241;51.208;4.432;2022-11-20T14:54:58;9.00;99.90
25300;DHT22;13241;51.208;4.432;2022-11-20T14:57:31;8.90;99.90
25300;DHT22;13241;51.208;4.432;2022-11-20T15:02:48;9.00;99.90
25300;DHT22;13241;51.208;4.432;2022-11-20T15:05:18;9.00;99.90
25300;DHT22;13241;51.208;4.432;2022-11-20T15:08:04;9.00;99.90
25300;DHT22;13241;51.208;4.432;2022-11-20T15:10:32;9.10;99.90
25300;DHT22;13241;51.208;4.432;2022-11-20T15:13:03;9.10;99.90
25300;DHT22;13241;51.208;4.432;2022-11-20T15:15:59;9.00;99.90
25300;DHT22;13241;51.208;4.432;2022-11-20T15:18:38;9.00;99.90
25300;DHT22;13241;51.208;4.432;2022-11-20T15:21:15;9.00;99.90
25300;DHT22;13241;51.208;4.432;2022-11-20T15:23:43;9.10;99.90
25300;DHT22;13241;51.208;4.432;2022-11-20T15:26:11;9.10;99.90
25300;DHT22;13241;51.208;4.432;2022-11-20T15:28:47;9.10;99.90
25300;DHT22;13241;51.208;4.432;2022-11-20T15:31:22;9.30;99.90
25300;DHT22;13241;51.208;4.432;2022-11-20T15:33:50;9.20;99.90
25300;DHT22;13241;51.208;4.432;2022-11-20T15:36:17;9.20;99.90
25300;DHT22;13241;51.208;4.432;2022-11-20T15:38:44;9.30;99.90
25300;DHT22;13241;51.208;4.432;2022-11-20T15:41:12;9.40;99.90
25300;DHT22;13241;51.208;4.432;2022-11-20T15:43:45;9.30;99.90
25300;DHT22;13241;51.208;4.432;2022-11-20T15:46:16;9.30;99.90
25300;DHT22;13241;51.208;4.432;2022-11-20T15:48:54;9.20;99.90
25300;DHT22;13241;51.208;4.432;2022-11-20T15:51:29;9.20;99.90
25300;DHT22;13241;51.208;4.432;2022-11-20T15:53:56;9.20;99.90
25300;DHT22;13241;51.208;4.432;2022-11-20T15:56:27;9.10;99.90
25300;DHT22;13241;51.208;4.432;2022-11-20T15:58:56;9.10;99.90
25300;DHT22;13241;51.208;4.432;2022-11-20T16:01:26;9.10;99.90
25300;DHT22;13241;51.208;4.432;2022-11-20T16:03:53;9.10;99.90
25300;DHT22;13241;51.208;4.432;2022-11-20T16:06:20;9.00;99.90
25300;DHT22;13241;51.208;4.432;2022-11-20T16:08:47;9.00;99.90
25300;DHT22;13241;51.208;4.432;2022-11-20T16:11:17;9.10;99.90
25300;DHT22;13241;51.208;4.432;2022-11-20T16:13:44;8.90;99.90
25300;DHT22;13241;51.208;4.432;2022-11-20T16:16:35;9.00;99.90
25300;DHT22;13241;51.208;4.432;2022-11-20T16:19:02;8.90;99.90
25300;DHT22;13241;51.208;4.432;2022-11-20T16:21:29;8.90;99.90
25300;DHT22;13241;51.208;4.432;2022-11-20T16:24:00;9.00;99.90
25300;DHT22;13241;51.208;4.432;2022-11-20T16:26:28;9.00;99.90
25300;DHT22;13241;51.208;4.432;2022-11-20T16:28:55;9.00;99.90
25300;DHT22;13241;51.208;4.432;2022-11-20T16:31:22;9.00;99.90
25300;DHT22;13241;51.208;4.432;2022-11-20T16:33:51;9.10;99.90
25300;DHT22;13241;51.208;4.432;2022-11-20T16:36:19;9.10;99.90
25300;DHT22;13241;51.208;4.432;2022-11-20T16:38:51;9.20;99.90
25300;DHT22;13241;51.208;4.432;2022-11-20T16:41:18;9.20;99.90
25300;DHT22;13241;51.208;4.432;2022-11-20T16:43:53;9.30;99.90
25300;DHT22;13241;51.208;4.432;2022-11-20T16:46:22;9.20;99.90
25300;DHT22;13241;51.208;4.432;2022-11-20T16:48:54;9.20;99.90
25300;DHT22;13241;51.208;4.432;2022-11-20T16:51:22;9.20;99.90
25300;DHT22;13241;51.208;4.432;2022-11-20T16:53:50;9.20;99.90
25300;DHT22;13241;51.208;4.432;2022-11-20T16:56:19;9.10;99.90
25300;DHT22;13241;51.208;4.432;2022-11-20T16:58:47;9.10;99.90
25300;DHT22;13241;51.208;4.432;2022-11-20T17:01:17;9.00;99.90
25300;DHT22;13241;51.208;4.432;2022-11-20T17:03:45;8.90;99.90
25300;DHT22;13241;51.208;4.432;2022-11-20T17:06:18;8.90;99.90
25300;DHT22;13241;51.208;4.432;2022-11-20T17:08:46;9.00;99.90
25300;DHT22;13241;51.208;4.432;2022-11-20T17:11:15;8.90;99.90
25300;DHT22;13241;51.208;4.432;2022-11-20T17:13:42;8.90;99.90
25300;DHT22;13241;51.208;4.432;2022-11-20T17:16:12;9.00;99.90
25300;DHT22;13241;51.208;4.432;2022-11-20T17:18:40;8.90;99.90
25300;DHT22;13241;51.208;4.432;2022-11-20T17:21:07;8.90;99.90
25300;DHT22;13241;51.208;4.432;2022-11-20T17:23:36;9.00;99.90
25300;DHT22;13241;51.208;4.432;2022-11-20T17:26:05;9.00;99.90
25300;DHT22;13241;51.208;4.432;2022-11-20T17:28:33;9.00;99.90
25300;DHT22;13241;51.208;4.432;2022-11-20T17:31:04;9.00;99.90